sensor_id;sensor_type;location;lat;lon;timestamp;temperature;humidity
43999;DHT22;51319;52.162;5.302;2023-12-14T00:01:14;6.40;99.90
43999;DHT22;51319;52.162;5.302;2023-12-14T00:03:42;6.40;99.90
43999;DHT22;51319;52.162;5.302;2023-12-14T00:06:11;6.40;99.90
43999;DHT22;51319;52.162;5.302;2023-12-14T00:08:39;6.40;99.90
43999;DHT22;51319;52.162;5.302;2023-12-14T00:11:10;6.40;99.90
43999;DHT22;51319;52.162;5.302;2023-12-14T00:13:38;6.40;99.90
43999;DHT22;51319;52.162;5.302;2023-12-14T00:16:06;6.40;99.90
43999;DHT22;51319;52.162;5.302;2023-12-14T00:18:33;6.40;99.90
43999;DHT22;51319;52.162;5.302;2023-12-14T00:21:00;6.30;99.90
43999;DHT22;51319;52.162;5.302;2023-12-14T00:23:27;6.30;99.90
43999;DHT22;51319;52.162;5.302;2023-12-14T00:25:54;6.30;99.90
43999;DHT22;51319;52.162;5.302;2023-12-14T00:28:21;6.30;99.90
43999;DHT22;51319;52.162;5.302;2023-12-14T00:30:53;6.30;99.90
43999;DHT22;51319;52.162;5.302;2023-12-14T00:33:21;6.40;99.90
43999;DHT22;51319;52.162;5.302;2023-12-14T00:35:48;6.30;99.90
43999;DHT22;51319;52.162;5.302;2023-12-14T00:38:15;6.30;99.90
43999;DHT22;51319;52.162;5.302;2023-12-14T00:40:42;6.30;99.90
43999;DHT22;51319;52.162;5.302;2023-12-14T00:43:09;6.30;99.90
43999;DHT22;51319;52.162;5.302;2023-12-14T00:45:36;6.30;99.90
43999;DHT22;51319;52.162;5.302;2023-12-14T00:48:03;6.40;99.90
43999;DHT22;51319;52.162;5.302;2023-12-14T00:50:30;6.30;99.90
43999;DHT22;51319;52.162;5.302;2023-12-14T00:52:57;6.30;99.90
43999;DHT22;51319;52.162;5.302;2023-12-14T00:55:24;6.30;99.90
43999;DHT22;51319;52.162;5.302;2023-12-14T00:57:51;6.30;99.90
43999;DHT22;51319;52.162;5.302;2023-12-14T01:00:18;6.30;99.90
43999;DHT22;51319;52.162;5.302;2023-12-14T01:02:45;6.30;99.90
43999;DHT22;51319;52.162;5.302;2023-12-14T01:05:12;6.30;99.90
43999;DHT22;51319;52.162;5.302;2023-12-14T01:07:39;6.20;99.90
43999;DHT22;51319;52.162;5.302;2023-12-14T01:10:07;6.30;99.90
43999;DHT22;51319;52.162;5.302;2023-12-14T01:12:34;6.20;99.90
43999;DHT22;51319;52.162;5.302;2023-12-14T01:15:01;6.30;99.90
43999;DHT22;51319;52.162;5.302;2023-12-14T01:17:32;6.20;99.90
43999;DHT22;51319;52.162;5.302;2023-12-14T01:20:06;6.20;99.90
43999;DHT22;51319;52.162;5.302;2023-12-14T01:22:34;6.20;99.90
43999;DHT22;51319;52.162;5.302;2023-12-14T01:25:01;6.20;99.90
43999;DHT22;51319;52.162;5.302;2023-12-14T01:27:28;6.20;99.90
43999;DHT22;51319;52.162;5.302;2023-12-14T01:29:55;6.20;99.90
43999;DHT22;51319;52.162;5.302;2023-12-14T01:32:22;6.20;99.90
43999;DHT22;51319;52.162;5.302;2023-12-14T01:34:49;6.20;99.90
43999;DHT22;51319;52.162;5.302;2023-12-14T01:37:16;6.20;99.90
43999;DHT22;51319;52.162;5.302;2023-12-14T01:39:43;6.20;99.90
43999;DHT22;51319;52.162;5.302;2023-12-14T01:42:10;6.20;99.90
43999;DHT22;51319;52.162;5.302;2023-12-14T01:44:37;6.20;99.90
43999;DHT22;51319;52.162;5.302;2023-12-14T01:47:04;6.20;99.90
43999;DHT22;51319;52.162;5.302;2023-12-14T01:49:31;6.20;99.90
43999;DHT22;51319;52.162;5.302;2023-12-14T01:51:58;6.20;99.90
43999;DHT22;51319;52.162;5.302;2023-12-14T01:54:25;6.20;99.90
43999;DHT22;51319;52.162;5.302;2023-12-14T01:56:52;6.20;99.90
43999;DHT22;51319;52.162;5.302;2023-12-14T01:59:23;6.20;99.90
43999;DHT22;51319;52.162;5.302;2023-12-14T02:01:55;6.20;99.90
43999;DHT22;51319;52.162;5.302;2023-12-14T02:04:26;6.20;99.90
43999;DHT22;51319;52.162;5.302;2023-12-14T02:06:53;6.20;99.90
43999;DHT22;51319;52.162;5.302;2023-12-14T02:09:20;6.10;99.90
43999;DHT22;51319;52.162;5.302;2023-12-14T02:11:47;6.20;99.90
43999;DHT22;51319;52.162;5.302;2023-12-14T02:14:14;6.20;99.90
43999;DHT22;51319;52.162;5.302;2023-12-14T02:16:41;6.20;99.90
43999;DHT22;51319;52.162;5.302;2023-12-14T02:19:08;6.10;99.90
43999;DHT22;51319;52.162;5.302;2023-12-14T02:21:35;6.10;99.90
43999;DHT22;51319;52.162;5.302;2023-12-14T02:24:03;6.20;99.90
43999;DHT22;51319;52.162;5.302;2023-12-14T02:26:30;6.20;99.90
43999;DHT22;51319;52.162;5.302;2023-12-14T02:28:57;6.20;99.90
43999;DHT22;51319;52.162;5.302;2023-12-14T02:31:24;6.20;99.90
43999;DHT22;51319;52.162;5.302;2023-12-14T02:33:51;6.20;99.90
43999;DHT22;51319;52.162;5.302;2023-12-14T02:36:18;6.20;99.90
43999;DHT22;51319;52.162;5.302;2023-12-14T02:38:45;6.20;99.90
43999;DHT22;51319;52.162;5.302;2023-12-14T02:41:12;6.30;99.90
43999;DHT22;51319;52.162;5.302;2023-12-14T02:43:39;6.20;99.90
43999;DHT22;51319;52.162;5.302;2023-12-14T02:46:08;6.30;99.90
43999;DHT22;51319;52.162;5.302;2023-12-14T02:48:35;6.20;99.90
43999;DHT22;51319;52.162;5.302;2023-12-14T02:51:03;6.30;99.90
43999;DHT22;51319;52.162;5.302;2023-12-14T02:53:30;6.30;99.90
43999;DHT22;51319;52.162;5.302;2023-12-14T02:56:01;6.30;99.90
43999;DHT22;51319;52.162;5.302;2023-12-14T02:58:28;6.30;99.90
43999;DHT22;51319;52.162;5.302;2023-12-14T03:00:55;6.30;99.90
43999;DHT22;51319;52.162;5.302;2023-12-14T03:03:22;6.30;99.90
43999;DHT22;51319;52.162;5.302;2023-12-14T03:05:49;6.30;99.90
43999;DHT22;51319;52.162;5.302;2023-12-14T03:08:16;6.30;99.90
43999;DHT22;51319;52.162;5.302;2023-12-14T03:10:43;6.30;99.90
43999;DHT22;51319;52.162;5.302;2023-12-14T03:13:10;6.20;99.90
43999;DHT22;51319;52.162;5.302;2023-12-14T03:15:37;6.30;99.90
43999;DHT22;51319;52.162;5.302;2023-12-14T03:18:04;6.20;99.90
43999;DHT22;51319;52.162;5.302;2023-12-14T03:20:31;6.20;99.90
43999;DHT22;51319;52.162;5.302;2023-12-14T03:22:58;6.20;99.90
43999;DHT22;51319;52.162;5.302;2023-12-14T03:25:25;6.20;99.90
43999;DHT22;51319;52.162;5.302;2023-12-14T03:27:52;6.20;99.90
43999;DHT22;51319;52.162;5.302;2023-12-14T03:30:19;6.20;99.90
43999;DHT22;51319;52.162;5.302;2023-12-14T03:32:46;6.20;99.90
43999;DHT22;51319;52.162;5.302;2023-12-14T03:35:13;6.10;99.90
43999;DHT22;51319;52.162;5.302;2023-12-14T03:37:40;6.20;99.90
43999;DHT22;51319;52.162;5.302;2023-12-14T03:40:08;6.20;99.90
43999;DHT22;51319;52.162;5.302;2023-12-14T03:42:35;6.20;99.90
43999;DHT22;51319;52.162;5.302;2023-12-14T03:45:02;6.10;99.90
43999;DHT22;51319;52.162;5.302;2023-12-14T03:47:29;6.10;99.90
43999;DHT22;51319;52.162;5.302;2023-12-14T03:49:56;6.10;99.90
43999;DHT22;51319;52.162;5.302;2023-12-14T03:52:24;6.10;99.90
43999;DHT22;51319;52.162;5.302;2023-12-14T03:54:52;6.10;99.90
43999;DHT22;51319;52.162;5.302;2023-12-14T03:57:19;6.10;99.90
43999;DHT22;51319;52.162;5.302;2023-12-14T03:59:46;6.10;99.90
43999;DHT22;51319;52.162;5.302;2023-12-14T04:02:13;6.10;99.90
43999;DHT22;51319;52.162;5.302;2023-12-14T04:04:40;6.00;99.90
43999;DHT22;51319;52.162;5.302;2023-12-14T04:07:07;6.10;99.90
43999;DHT22;51319;52.162;5.302;2023-12-14T04:09:34;6.10;99.90
43999;DHT22;51319;52.162;5.302;2023-12-14T04:12:01;6.10;99.90
43999;DHT22;51319;52.162;5.302;2023-12-14T04:14:28;6.10;99.90
43999;DHT22;51319;52.162;5.302;2023-12-14T04:16:55;6.10;99.90
43999;DHT22;51319;52.162;5.302;2023-12-14T04:19:22;6.00;99.90
43999;DHT22;51319;52.162;5.302;2023-12-14T04:21:49;6.10;99.90
43999;DHT22;51319;52.162;5.302;2023-12-14T04:24:15;6.10;99.90
43999;DHT22;51319;52.162;5.302;2023-12-14T04:26:42;6.00;99.90
43999;DHT22;51319;52.162;5.302;2023-12-14T04:29:12;6.00;99.90
43999;DHT22;51319;52.162;5.302;2023-12-14T04:31:40;6.00;99.90
43999;DHT22;51319;52.162;5.302;2023-12-14T04:34:07;6.00;99.90
43999;DHT22;51319;52.162;5.302;2023-12-14T04:36:38;6.00;99.90
43999;DHT22;51319;52.162;5.302;2023-12-14T04:39:05;6.00;99.90
43999;DHT22;51319;52.162;5.302;2023-12-14T04:41:32;6.00;99.90
43999;DHT22;51319;52.162;5.302;2023-12-14T04:43:59;6.00;99.90
43999;DHT22;51319;52.162;5.302;2023-12-14T04:46:28;6.00;99.90
43999;DHT22;51319;52.162;5.302;2023-12-14T04:48:55;5.90;99.90
43999;DHT22;51319;52.162;5.302;2023-12-14T04:51:22;5.90;99.90
43999;DHT22;51319;52.162;5.302;2023-12-14T04:53:49;5.90;99.90
43999;DHT22;51319;52.162;5.302;2023-12-14T04:56:16;5.90;99.90
43999;DHT22;51319;52.162;5.302;2023-12-14T04:58:43;5.90;99.90
43999;DHT22;51319;52.162;5.302;2023-12-14T05:01:11;5.90;99.90
43999;DHT22;51319;52.162;5.302;2023-12-14T05:03:38;5.90;99.90
43999;DHT22;51319;52.162;5.302;2023-12-14T05:06:06;5.90;99.90
43999;DHT22;51319;52.162;5.302;2023-12-14T05:08:34;5.90;99.90
43999;DHT22;51319;52.162;5.302;2023-12-14T05:11:00;5.90;99.90
43999;DHT22;51319;52.162;5.302;2023-12-14T05:13:27;5.90;99.90
43999;DHT22;51319;52.162;5.302;2023-12-14T05:15:54;5.90;99.90
43999;DHT22;51319;52.162;5.302;2023-12-14T05:18:21;5.90;99.90
43999;DHT22;51319;52.162;5.302;2023-12-14T05:20:48;5.80;99.90
43999;DHT22;51319;52.162;5.302;2023-12-14T05:23:15;5.80;99.90
43999;DHT22;51319;52.162;5.302;2023-12-14T05:25:42;5.80;99.90
43999;DHT22;51319;52.162;5.302;2023-12-14T05:28:10;5.80;99.90
43999;DHT22;51319;52.162;5.302;2023-12-14T05:30:37;5.80;99.90
43999;DHT22;51319;52.162;5.302;2023-12-14T05:33:04;5.80;99.90
43999;DHT22;51319;52.162;5.302;2023-12-14T05:35:31;5.80;99.90
43999;DHT22;51319;52.162;5.302;2023-12-14T05:37:58;5.70;99.90
43999;DHT22;51319;52.162;5.302;2023-12-14T05:40:25;5.80;99.90
43999;DHT22;51319;52.162;5.302;2023-12-14T05:42:52;5.80;99.90
43999;DHT22;51319;52.162;5.302;2023-12-14T05:45:19;5.70;99.90
43999;DHT22;51319;52.162;5.302;2023-12-14T05:47:46;5.80;99.90
43999;DHT22;51319;52.162;5.302;2023-12-14T05:50:13;5.70;99.90
43999;DHT22;51319;52.162;5.302;2023-12-14T05:52:40;5.80;99.90
43999;DHT22;51319;52.162;5.302;2023-12-14T05:55:08;5.80;99.90
43999;DHT22;51319;52.162;5.302;2023-12-14T05:57:37;5.70;99.90
43999;DHT22;51319;52.162;5.302;2023-12-14T06:00:07;5.70;99.90
43999;DHT22;51319;52.162;5.302;2023-12-14T06:02:35;5.70;99.90
43999;DHT22;51319;52.162;5.302;2023-12-14T06:05:06;5.70;99.90
43999;DHT22;51319;52.162;5.302;2023-12-14T06:07:34;5.70;99.90
43999;DHT22;51319;52.162;5.302;2023-12-14T06:10:02;5.70;99.90
43999;DHT22;51319;52.162;5.302;2023-12-14T06:12:30;5.70;99.90
43999;DHT22;51319;52.162;5.302;2023-12-14T06:14:57;5.70;99.90
43999;DHT22;51319;52.162;5.302;2023-12-14T06:17:24;5.70;99.90
43999;DHT22;51319;52.162;5.302;2023-12-14T06:19:54;5.60;99.90
43999;DHT22;51319;52.162;5.302;2023-12-14T06:22:21;5.60;99.90
43999;DHT22;51319;52.162;5.302;2023-12-14T06:24:48;5.60;99.90
43999;DHT22;51319;52.162;5.302;2023-12-14T06:27:15;5.60;99.90
43999;DHT22;51319;52.162;5.302;2023-12-14T06:29:42;5.60;99.90
43999;DHT22;51319;52.162;5.302;2023-12-14T06:32:09;5.50;99.90
43999;DHT22;51319;52.162;5.302;2023-12-14T06:34:37;5.50;99.90
43999;DHT22;51319;52.162;5.302;2023-12-14T06:37:04;5.50;99.90
43999;DHT22;51319;52.162;5.302;2023-12-14T06:39:32;5.50;99.90
43999;DHT22;51319;52.162;5.302;2023-12-14T06:41:59;5.50;99.90
43999;DHT22;51319;52.162;5.302;2023-12-14T06:44:25;5.50;99.90
43999;DHT22;51319;52.162;5.302;2023-12-14T06:46:54;5.50;99.90
43999;DHT22;51319;52.162;5.302;2023-12-14T06:49:21;5.50;99.90
43999;DHT22;51319;52.162;5.302;2023-12-14T06:51:48;5.50;99.90
43999;DHT22;51319;52.162;5.302;2023-12-14T06:54:15;5.50;99.90
43999;DHT22;51319;52.162;5.302;2023-12-14T06:56:42;5.50;99.90
43999;DHT22;51319;52.162;5.302;2023-12-14T06:59:09;5.50;99.90
43999;DHT22;51319;52.162;5.302;2023-12-14T07:01:36;5.50;99.90
43999;DHT22;51319;52.162;5.302;2023-12-14T07:04:03;5.50;99.90
43999;DHT22;51319;52.162;5.302;2023-12-14T07:06:30;5.60;99.90
43999;DHT22;51319;52.162;5.302;2023-12-14T07:08:58;5.50;99.90
43999;DHT22;51319;52.162;5.302;2023-12-14T07:11:25;5.50;99.90
43999;DHT22;51319;52.162;5.302;2023-12-14T07:13:52;5.50;99.90
43999;DHT22;51319;52.162;5.302;2023-12-14T07:16:19;5.50;99.90
43999;DHT22;51319;52.162;5.302;2023-12-14T07:18:46;5.40;99.90
43999;DHT22;51319;52.162;5.302;2023-12-14T07:21:13;5.40;99.90
43999;DHT22;51319;52.162;5.302;2023-12-14T07:23:40;5.30;99.90
43999;DHT22;51319;52.162;5.302;2023-12-14T07:26:07;5.30;99.90
43999;DHT22;51319;52.162;5.302;2023-12-14T07:28:34;5.40;99.90
43999;DHT22;51319;52.162;5.302;2023-12-14T07:31:01;5.40;99.90
43999;DHT22;51319;52.162;5.302;2023-12-14T07:33:29;5.30;99.90
43999;DHT22;51319;52.162;5.302;2023-12-14T07:35:56;5.30;99.90
43999;DHT22;51319;52.162;5.302;2023-12-14T07:38:23;5.40;99.90
43999;DHT22;51319;52.162;5.302;2023-12-14T07:40:50;5.40;99.90
43999;DHT22;51319;52.162;5.302;2023-12-14T07:43:19;5.40;99.90
43999;DHT22;51319;52.162;5.302;2023-12-14T07:45:47;5.40;99.90
43999;DHT22;51319;52.162;5.302;2023-12-14T07:48:14;5.40;99.90
43999;DHT22;51319;52.162;5.302;2023-12-14T07:50:41;5.40;99.90
43999;DHT22;51319;52.162;5.302;2023-12-14T07:53:08;5.40;99.90
43999;DHT22;51319;52.162;5.302;2023-12-14T07:55:35;5.40;99.90
43999;DHT22;51319;52.162;5.302;2023-12-14T07:58:02;5.40;99.90
43999;DHT22;51319;52.162;5.302;2023-12-14T08:00:32;5.40;99.90
43999;DHT22;51319;52.162;5.302;2023-12-14T08:02:58;5.40;99.90
43999;DHT22;51319;52.162;5.302;2023-12-14T08:05:25;5.40;99.90
43999;DHT22;51319;52.162;5.302;2023-12-14T08:07:53;5.40;99.90
43999;DHT22;51319;52.162;5.302;2023-12-14T08:10:20;5.40;99.90
43999;DHT22;51319;52.162;5.302;2023-12-14T08:12:47;5.40;99.90
43999;DHT22;51319;52.162;5.302;2023-12-14T08:15:14;5.50;99.90
43999;DHT22;51319;52.162;5.302;2023-12-14T08:17:41;5.40;99.90
43999;DHT22;51319;52.162;5.302;2023-12-14T08:20:09;5.50;99.90
43999;DHT22;51319;52.162;5.302;2023-12-14T08:22:38;5.50;99.90
43999;DHT22;51319;52.162;5.302;2023-12-14T08:25:12;5.50;99.90
43999;DHT22;51319;52.162;5.302;2023-12-14T08:27:41;5.50;99.90
43999;DHT22;51319;52.162;5.302;2023-12-14T08:30:10;5.60;99.90
43999;DHT22;51319;52.162;5.302;2023-12-14T08:32:37;5.60;99.90
43999;DHT22;51319;52.162;5.302;2023-12-14T08:35:05;5.60;99.90
43999;DHT22;51319;52.162;5.302;2023-12-14T08:37:32;5.60;99.90
43999;DHT22;51319;52.162;5.302;2023-12-14T08:39:59;5.60;99.90
43999;DHT22;51319;52.162;5.302;2023-12-14T08:42:26;5.60;99.90
43999;DHT22;51319;52.162;5.302;2023-12-14T08:44:53;5.60;99.90
43999;DHT22;51319;52.162;5.302;2023-12-14T08:47:20;5.70;99.90
43999;DHT22;51319;52.162;5.302;2023-12-14T08:49:47;5.70;99.90
43999;DHT22;51319;52.162;5.302;2023-12-14T08:52:14;5.70;99.90
43999;DHT22;51319;52.162;5.302;2023-12-14T08:54:41;5.70;99.90
43999;DHT22;51319;52.162;5.302;2023-12-14T08:57:11;5.70;99.90
43999;DHT22;51319;52.162;5.302;2023-12-14T08:59:38;5.70;99.90
43999;DHT22;51319;52.162;5.302;2023-12-14T09:02:09;5.70;99.90
43999;DHT22;51319;52.162;5.302;2023-12-14T09:04:36;5.80;99.90
43999;DHT22;51319;52.162;5.302;2023-12-14T09:07:05;5.80;99.90
43999;DHT22;51319;52.162;5.302;2023-12-14T09:09:32;5.70;99.90
43999;DHT22;51319;52.162;5.302;2023-12-14T09:11:59;5.70;99.90
43999;DHT22;51319;52.162;5.302;2023-12-14T09:14:26;5.70;99.90
43999;DHT22;51319;52.162;5.302;2023-12-14T09:16:53;5.80;99.90
43999;DHT22;51319;52.162;5.302;2023-12-14T09:19:25;5.90;99.90
43999;DHT22;51319;52.162;5.302;2023-12-14T09:21:52;5.90;99.90
43999;DHT22;51319;52.162;5.302;2023-12-14T09:24:19;5.90;99.90
43999;DHT22;51319;52.162;5.302;2023-12-14T09:26:46;5.90;99.90
43999;DHT22;51319;52.162;5.302;2023-12-14T09:29:13;6.00;99.90
43999;DHT22;51319;52.162;5.302;2023-12-14T09:31:42;6.00;99.90
43999;DHT22;51319;52.162;5.302;2023-12-14T09:34:11;6.00;99.90
43999;DHT22;51319;52.162;5.302;2023-12-14T09:36:39;6.10;99.90
43999;DHT22;51319;52.162;5.302;2023-12-14T09:39:06;6.10;99.90
43999;DHT22;51319;52.162;5.302;2023-12-14T09:41:38;6.10;99.90
43999;DHT22;51319;52.162;5.302;2023-12-14T09:44:06;6.20;99.90
43999;DHT22;51319;52.162;5.302;2023-12-14T09:46:36;6.20;99.90
43999;DHT22;51319;52.162;5.302;2023-12-14T09:49:04;6.30;99.90
43999;DHT22;51319;52.162;5.302;2023-12-14T09:51:35;6.30;99.90
43999;DHT22;51319;52.162;5.302;2023-12-14T09:54:03;6.30;99.90
43999;DHT22;51319;52.162;5.302;2023-12-14T09:56:32;6.30;99.90
43999;DHT22;51319;52.162;5.302;2023-12-14T09:58:59;6.40;99.90
43999;DHT22;51319;52.162;5.302;2023-12-14T10:01:29;6.50;99.90
43999;DHT22;51319;52.162;5.302;2023-12-14T10:04:17;6.60;99.90
43999;DHT22;51319;52.162;5.302;2023-12-14T10:06:46;6.80;99.90
43999;DHT22;51319;52.162;5.302;2023-12-14T10:09:14;6.90;99.90
43999;DHT22;51319;52.162;5.302;2023-12-14T10:11:43;7.10;99.90
43999;DHT22;51319;52.162;5.302;2023-12-14T10:14:21;7.40;99.90
43999;DHT22;51319;52.162;5.302;2023-12-14T10:16:50;7.60;99.90
43999;DHT22;51319;52.162;5.302;2023-12-14T10:19:19;7.70;99.90
43999;DHT22;51319;52.162;5.302;2023-12-14T10:21:49;7.90;99.90
43999;DHT22;51319;52.162;5.302;2023-12-14T10:24:17;8.00;99.90
43999;DHT22;51319;52.162;5.302;2023-12-14T10:26:47;8.20;99.90
43999;DHT22;51319;52.162;5.302;2023-12-14T10:29:15;8.30;99.90
43999;DHT22;51319;52.162;5.302;2023-12-14T10:31:43;8.30;99.90
43999;DHT22;51319;52.162;5.302;2023-12-14T10:34:10;8.30;99.90
43999;DHT22;51319;52.162;5.302;2023-12-14T10:36:40;8.20;99.90
43999;DHT22;51319;52.162;5.302;2023-12-14T10:39:14;8.20;99.90
43999;DHT22;51319;52.162;5.302;2023-12-14T10:41:46;8.10;99.90
43999;DHT22;51319;52.162;5.302;2023-12-14T10:44:26;8.00;99.90
43999;DHT22;51319;52.162;5.302;2023-12-14T10:47:15;8.10;99.90
43999;DHT22;51319;52.162;5.302;2023-12-14T10:49:43;8.10;99.90
43999;DHT22;51319;52.162;5.302;2023-12-14T10:52:16;8.00;99.90
43999;DHT22;51319;52.162;5.302;2023-12-14T10:54:44;8.00;99.90
43999;DHT22;51319;52.162;5.302;2023-12-14T10:57:12;8.00;99.90
43999;DHT22;51319;52.162;5.302;2023-12-14T10:59:39;8.10;99.90
43999;DHT22;51319;52.162;5.302;2023-12-14T11:02:09;8.20;99.90
43999;DHT22;51319;52.162;5.302;2023-12-14T11:04:58;8.10;99.90
43999;DHT22;51319;52.162;5.302;2023-12-14T11:07:49;8.10;99.90
43999;DHT22;51319;52.162;5.302;2023-12-14T11:10:26;8.20;99.90
43999;DHT22;51319;52.162;5.302;2023-12-14T11:15:24;8.90;99.90
43999;DHT22;51319;52.162;5.302;2023-12-14T11:23:16;9.90;98.90
43999;DHT22;51319;52.162;5.302;2023-12-14T11:25:56;9.90;98.60
43999;DHT22;51319;52.162;5.302;2023-12-14T11:28:38;10.30;98.20
43999;DHT22;51319;52.162;5.302;2023-12-14T11:31:05;10.60;97.50
43999;DHT22;51319;52.162;5.302;2023-12-14T11:33:36;10.90;97.20
43999;DHT22;51319;52.162;5.302;2023-12-14T11:36:11;11.00;96.20
43999;DHT22;51319;52.162;5.302;2023-12-14T11:38:38;11.10;95.70
43999;DHT22;51319;52.162;5.302;2023-12-14T11:41:05;11.20;94.30
43999;DHT22;51319;52.162;5.302;2023-12-14T11:43:40;11.20;94.10
43999;DHT22;51319;52.162;5.302;2023-12-14T11:46:09;11.00;93.30
43999;DHT22;51319;52.162;5.302;2023-12-14T11:48:36;10.90;93.60
43999;DHT22;51319;52.162;5.302;2023-12-14T11:51:04;10.60;93.40
43999;DHT22;51319;52.162;5.302;2023-12-14T11:53:31;10.30;93.50
43999;DHT22;51319;52.162;5.302;2023-12-14T11:56:01;10.10;93.80
43999;DHT22;51319;52.162;5.302;2023-12-14T11:58:31;10.00;94.10
43999;DHT22;51319;52.162;5.302;2023-12-14T12:01:19;9.80;94.10
43999;DHT22;51319;52.162;5.302;2023-12-14T12:03:47;9.60;94.30
43999;DHT22;51319;52.162;5.302;2023-12-14T12:06:26;9.50;94.80
43999;DHT22;51319;52.162;5.302;2023-12-14T12:08:54;9.40;94.90
43999;DHT22;51319;52.162;5.302;2023-12-14T12:11:23;9.30;95.40
43999;DHT22;51319;52.162;5.302;2023-12-14T12:13:53;9.20;95.20
43999;DHT22;51319;52.162;5.302;2023-12-14T12:16:21;9.10;95.30
43999;DHT22;51319;52.162;5.302;2023-12-14T12:18:48;9.10;95.60
43999;DHT22;51319;52.162;5.302;2023-12-14T12:21:15;9.00;95.80
43999;DHT22;51319;52.162;5.302;2023-12-14T12:23:42;9.00;96.10
43999;DHT22;51319;52.162;5.302;2023-12-14T12:26:09;8.90;96.20
43999;DHT22;51319;52.162;5.302;2023-12-14T12:28:36;8.80;96.30
43999;DHT22;51319;52.162;5.302;2023-12-14T12:31:04;8.80;96.60
43999;DHT22;51319;52.162;5.302;2023-12-14T12:33:31;8.70;96.70
43999;DHT22;51319;52.162;5.302;2023-12-14T12:36:04;8.60;96.80
43999;DHT22;51319;52.162;5.302;2023-12-14T12:38:32;8.50;97.00
43999;DHT22;51319;52.162;5.302;2023-12-14T12:40:59;8.50;97.00
43999;DHT22;51319;52.162;5.302;2023-12-14T12:43:27;8.40;97.10
43999;DHT22;51319;52.162;5.302;2023-12-14T12:45:54;8.40;97.30
43999;DHT22;51319;52.162;5.302;2023-12-14T12:48:21;8.40;97.60
43999;DHT22;51319;52.162;5.302;2023-12-14T12:50:53;8.40;97.80
43999;DHT22;51319;52.162;5.302;2023-12-14T12:53:20;8.40;97.90
43999;DHT22;51319;52.162;5.302;2023-12-14T12:55:47;8.30;97.80
43999;DHT22;51319;52.162;5.302;2023-12-14T12:58:14;8.20;97.80
43999;DHT22;51319;52.162;5.302;2023-12-14T13:00:41;8.20;98.00
43999;DHT22;51319;52.162;5.302;2023-12-14T13:03:08;8.20;97.90
43999;DHT22;51319;52.162;5.302;2023-12-14T13:05:37;8.20;98.10
43999;DHT22;51319;52.162;5.302;2023-12-14T13:08:04;8.10;98.00
43999;DHT22;51319;52.162;5.302;2023-12-14T13:10:31;8.10;97.80
43999;DHT22;51319;52.162;5.302;2023-12-14T13:12:59;8.10;97.80
43999;DHT22;51319;52.162;5.302;2023-12-14T13:15:27;8.00;98.00
43999;DHT22;51319;52.162;5.302;2023-12-14T13:17:56;8.00;98.00
43999;DHT22;51319;52.162;5.302;2023-12-14T13:20:24;8.00;98.10
43999;DHT22;51319;52.162;5.302;2023-12-14T13:22:51;7.90;98.20
43999;DHT22;51319;52.162;5.302;2023-12-14T13:25:19;7.90;98.40
43999;DHT22;51319;52.162;5.302;2023-12-14T13:27:49;7.90;98.50
43999;DHT22;51319;52.162;5.302;2023-12-14T13:30:16;7.90;98.60
43999;DHT22;51319;52.162;5.302;2023-12-14T13:32:45;7.90;98.60
43999;DHT22;51319;52.162;5.302;2023-12-14T13:35:13;8.00;98.70
43999;DHT22;51319;52.162;5.302;2023-12-14T13:37:40;8.00;98.60
43999;DHT22;51319;52.162;5.302;2023-12-14T13:40:07;8.00;98.60
43999;DHT22;51319;52.162;5.302;2023-12-14T13:42:38;8.00;98.40
43999;DHT22;51319;52.162;5.302;2023-12-14T13:45:20;7.90;98.40
43999;DHT22;51319;52.162;5.302;2023-12-14T13:47:47;7.90;98.40
43999;DHT22;51319;52.162;5.302;2023-12-14T13:50:14;7.80;98.30
43999;DHT22;51319;52.162;5.302;2023-12-14T13:52:41;7.80;98.30
43999;DHT22;51319;52.162;5.302;2023-12-14T13:55:08;7.80;98.60
43999;DHT22;51319;52.162;5.302;2023-12-14T13:57:35;7.90;98.70
43999;DHT22;51319;52.162;5.302;2023-12-14T14:00:02;7.90;98.70
43999;DHT22;51319;52.162;5.302;2023-12-14T14:02:29;7.90;98.90
43999;DHT22;51319;52.162;5.302;2023-12-14T14:04:57;8.00;98.90
43999;DHT22;51319;52.162;5.302;2023-12-14T14:07:24;7.90;98.70
43999;DHT22;51319;52.162;5.302;2023-12-14T14:09:51;7.90;98.60
43999;DHT22;51319;52.162;5.302;2023-12-14T14:12:18;7.90;98.70
43999;DHT22;51319;52.162;5.302;2023-12-14T14:14:45;7.80;98.70
43999;DHT22;51319;52.162;5.302;2023-12-14T14:17:12;7.80;98.70
43999;DHT22;51319;52.162;5.302;2023-12-14T14:19:39;7.70;98.70
43999;DHT22;51319;52.162;5.302;2023-12-14T14:22:06;7.70;98.80
43999;DHT22;51319;52.162;5.302;2023-12-14T14:24:33;7.60;98.90
43999;DHT22;51319;52.162;5.302;2023-12-14T14:27:00;7.60;99.10
43999;DHT22;51319;52.162;5.302;2023-12-14T14:29:27;7.50;99.20
43999;DHT22;51319;52.162;5.302;2023-12-14T14:31:54;7.50;99.40
43999;DHT22;51319;52.162;5.302;2023-12-14T14:34:21;7.40;99.50
43999;DHT22;51319;52.162;5.302;2023-12-14T14:36:51;7.30;99.50
43999;DHT22;51319;52.162;5.302;2023-12-14T14:39:18;7.30;99.80
43999;DHT22;51319;52.162;5.302;2023-12-14T14:41:45;7.30;99.90
43999;DHT22;51319;52.162;5.302;2023-12-14T14:44:12;7.40;99.90
43999;DHT22;51319;52.162;5.302;2023-12-14T14:46:39;7.30;99.90
43999;DHT22;51319;52.162;5.302;2023-12-14T14:49:06;7.30;99.90
43999;DHT22;51319;52.162;5.302;2023-12-14T14:51:33;7.30;99.90
43999;DHT22;51319;52.162;5.302;2023-12-14T14:54:00;7.20;99.90
43999;DHT22;51319;52.162;5.302;2023-12-14T14:56:27;7.20;99.90
43999;DHT22;51319;52.162;5.302;2023-12-14T14:58:54;7.20;99.90
43999;DHT22;51319;52.162;5.302;2023-12-14T15:01:21;7.10;99.90
43999;DHT22;51319;52.162;5.302;2023-12-14T15:03:48;7.10;99.90
43999;DHT22;51319;52.162;5.302;2023-12-14T15:06:16;7.10;99.90
43999;DHT22;51319;52.162;5.302;2023-12-14T15:08:43;7.10;99.90
43999;DHT22;51319;52.162;5.302;2023-12-14T15:11:10;7.10;99.90
43999;DHT22;51319;52.162;5.302;2023-12-14T15:13:37;7.10;99.90
43999;DHT22;51319;52.162;5.302;2023-12-14T15:16:06;7.10;99.90
43999;DHT22;51319;52.162;5.302;2023-12-14T15:18:33;7.10;99.90
43999;DHT22;51319;52.162;5.302;2023-12-14T15:21:08;7.10;99.90
43999;DHT22;51319;52.162;5.302;2023-12-14T15:23:37;7.10;99.90
43999;DHT22;51319;52.162;5.302;2023-12-14T15:26:05;7.10;99.90
43999;DHT22;51319;52.162;5.302;2023-12-14T15:28:35;7.00;99.90
43999;DHT22;51319;52.162;5.302;2023-12-14T15:31:02;7.00;99.90
43999;DHT22;51319;52.162;5.302;2023-12-14T15:33:29;7.00;99.90
43999;DHT22;51319;52.162;5.302;2023-12-14T15:35:56;6.90;99.90
43999;DHT22;51319;52.162;5.302;2023-12-14T15:38:27;6.90;99.90
43999;DHT22;51319;52.162;5.302;2023-12-14T15:40:55;6.90;99.90
43999;DHT22;51319;52.162;5.302;2023-12-14T15:43:29;6.90;99.90
43999;DHT22;51319;52.162;5.302;2023-12-14T15:45:57;6.90;99.90
43999;DHT22;51319;52.162;5.302;2023-12-14T15:48:27;6.80;99.90
43999;DHT22;51319;52.162;5.302;2023-12-14T15:51:05;6.80;99.90
43999;DHT22;51319;52.162;5.302;2023-12-14T15:53:39;6.70;99.90
43999;DHT22;51319;52.162;5.302;2023-12-14T15:56:06;6.80;99.90
43999;DHT22;51319;52.162;5.302;2023-12-14T15:58:33;6.80;99.90